Impacts METAR Board
IDs:

KTLH - Tallahassee Intl, FL, US

Updated at: 2200 UTC 23 May 2018
Potential Impact None Slight Moderate High
Time 23/10Z 23/11Z 23/12Z 23/13Z 23/14Z 23/15Z 23/16Z 23/17Z 23/18Z 23/19Z 23/20Z 23/21Z 23/22Z
Temp71 72 74 77 79 83 82 78 83 83 85 74 74
Dewpt69 70 71 72 71 70 71 74 71 73 70 71 71
Altim30.05 30.07 30.08 30.10 30.11 30.11 30.10 30.09 30.07 30.06 30.04 30.07 30.05
VIS10 10 10 10 10 10 10 10 10 10 10 0.5 10
CIG-- -- -- 55 55 -- -- 37 -- 90 48 22 100
CoverFEWFEWFEWBKNBKNSCTSCTBKNSCTBKNBKNBKNBKN
FltCatVFRVFRVFRVFRVFRVFRVFRVFRVFRVFRVFRLIFRVFR
WX--BCFGBCFG---------RA----TS-TSRA-TSRA
WDir0002102102001801901601601600140
WSpd0 0 0 5 6 5 5 9 9 8 9 6 5
WGst-- -- -- -- -- -- -- -- -- -- -- 16 --
Raw hourly METARs
KTLH 230953Z 00000KT 10SM FEW055 22/21 A3005 RMK AO2 SLP175 T02170206
KTLH 231053Z 00000KT 10SM BCFG FEW055 22/21 A3007 RMK AO2 SLP181 T02220211
KTLH 231153Z 00000KT 10SM BCFG FEW055 23/22 A3008 RMK AO2 SLP185 70006 T02330217 10233 20217 53013
KTLH 231253Z 21005KT 10SM BKN055 25/22 A3010 RMK AO2 SLP191 T02500222
KTLH 231353Z 21006KT 10SM FEW016 SCT023 BKN055 26/22 A3011 RMK AO2 SLP194 T02610217
KTLH 231453Z 20005KT 10SM FEW023 SCT030 SCT070 28/21 A3011 RMK AO2 SLP193 T02830211 51003
KTLH 231553Z 18005KT 10SM SCT026 SCT070 28/22 A3010 RMK AO2 RAB10E31 SLP193 P0003 T02780217
KTLH 231653Z 19009KT 10SM -RA BKN037 BKN055 26/23 A3009 RMK AO2 RAB39 SLP189 P0004 T02560233
KTLH 231753Z 16009KT 10SM SCT041 28/22 A3007 RMK AO2 RAE1659 SLP181 P0000 60007 T02830217 10289 20250 58012
KTLH 231853Z COR 16008KT 10SM FEW029 BKN090 BKN110 28/23 A3006 RMK AO2 LTG DSNT W RAB23E40 SLP176 P0000 T02830228
KTLH 231953Z 16009KT 10SM TS BKN048CB BKN250 29/21 A3004 RMK AO2 LTG DSNT W-N TSB22 SLP172 OCNL LTGCG W-N TS W-N MOV NE T02940211
KTLH 232053Z VRB06G16KT 1/2SM -TSRA BKN022 BKN048CB BKN250 23/22 A3007 RMK AO2 PK WND 30026/2025 WSHFT 2018 SFC VIS 3/4 LTG DSNT ALQDS RAB32 SLP182 VIS E 3 OCNL LTGIC OHD TS OHD MOV E P0019 60019 T02330217 53000
KTLH 232153Z 14005KT 10SM -TSRA FEW022 SCT040CB BKN100 BKN250 23/22 A3005 RMK AO2 TSE30B48 SLP174 OCNL LTGIC S TS S MOV E P0052 T02330217



Page loaded:  22:10 UTC  |   03:10 PM Pacific  |   04:10 PM Mountain  |   05:10 PM Central  |   06:10 PM Eastern

 

ADVISORIES

FORECASTS

FORECASTS

OBSERVATIONS

USER TOOLS

ABOUT US